Terminal Aerodrome Forecast
Issued by NWS

Home | Current Version | Previous Version | Text Only | Print | Product List | Glossary On
Versions: 1 2 3 4 5 6 7 8 9 10 11 12 13 14 15 16 17 18 19 20 21 22
000
FTUS44 KLZK 250500
TAFADF
TAF
KADF 250537Z 2506/2606 12010KT P6SM VCSH BKN004 OVC025
      WS020/21040KT
      TEMPO 2506/2508 OVC004
     FM250800 17010KT P6SM OVC005 WS020/22040KT
     FM251400 21010G22KT P6SM BKN015 WS020/22040KT
     FM251900 23012G22KT P6SM SCT040=

USA.gov is the U.S. government's official web portal to all federal, state and local government web resources and services.